createdAt,value
2023-01-13T00:00:16.102Z,76771.28
2023-01-13T00:03:03.437Z,76775.34
2023-01-13T00:05:30.840Z,76777.38
2023-01-13T00:07:57.764Z,76779.38
2023-01-13T00:10:25.009Z,76771.28
2023-01-13T00:12:53.551Z,76779.38
2023-01-13T00:15:20.897Z,76763.16
2023-01-13T00:17:48.853Z,76765.19
2023-01-13T00:20:16.538Z,76771.28
2023-01-13T00:22:43.626Z,76771.28
2023-01-13T00:25:11.032Z,76771.28
2023-01-13T00:27:38.207Z,76769.25
2023-01-13T00:30:07.583Z,76771.28
2023-01-13T00:32:34.581Z,76763.16
2023-01-13T00:35:01.980Z,76769.25
2023-01-13T00:37:29.125Z,76771.28
2023-01-13T00:39:57.880Z,76771.28
2023-01-13T00:42:43.181Z,76771.28
2023-01-13T00:45:10.842Z,76767.22
2023-01-13T00:47:37.964Z,76767.22
2023-01-13T00:50:05.570Z,76767.22
2023-01-13T00:52:33.676Z,76767.22
2023-01-13T00:55:01.020Z,76763.16
2023-01-13T00:57:28.061Z,76763.16
2023-01-13T00:59:55.581Z,76753.03
2023-01-13T01:02:22.543Z,76755.06
2023-01-13T01:04:50.023Z,76757.09
2023-01-13T01:07:17.030Z,76753.03
2023-01-13T01:09:44.279Z,76753.03
2023-01-13T01:12:11.532Z,76751.00
2023-01-13T01:14:38.781Z,76746.97
2023-01-13T01:17:05.677Z,76755.06
2023-01-13T01:19:32.978Z,76742.91
2023-01-13T01:21:59.913Z,76740.88
2023-01-13T01:24:27.263Z,76736.81
2023-01-13T01:26:54.161Z,76763.16
2023-01-13T01:29:21.302Z,76734.78
2023-01-13T01:31:48.259Z,76734.78
2023-01-13T01:34:15.459Z,76732.75
2023-01-13T01:36:42.380Z,76726.69
2023-01-13T01:39:09.986Z,76722.63
2023-01-13T01:41:37.371Z,76726.69
2023-01-13T01:44:27.232Z,76726.69
2023-01-13T01:46:56.480Z,76722.63
2023-01-13T01:49:32.162Z,76722.63
2023-01-13T01:52:13.301Z,76722.63
2023-01-13T01:55:24.102Z,76722.63
2023-01-13T01:57:57.266Z,76722.63
2023-01-13T02:00:27.051Z,76720.59
2023-01-13T02:02:54.778Z,76722.63
2023-01-13T02:05:22.319Z,76720.59
2023-01-13T02:07:52.339Z,76718.56
2023-01-13T02:10:23.454Z,76722.63
2023-01-13T02:12:53.057Z,76710.47
2023-01-13T02:15:32.774Z,76710.47
2023-01-13T02:18:11.799Z,76710.47
2023-01-13T02:20:51.078Z,76710.47
2023-01-13T02:24:03.823Z,76710.47
2023-01-13T02:26:49.546Z,76708.44
2023-01-13T02:30:12.231Z,76702.34
2023-01-13T02:32:51.750Z,76702.34
2023-01-13T02:35:27.509Z,76690.19
2023-01-13T02:37:56.882Z,76702.34
2023-01-13T02:40:28.687Z,76696.28
2023-01-13T02:43:31.076Z,76694.25
2023-01-13T02:46:04.658Z,76694.25
2023-01-13T02:48:33.117Z,76692.22
2023-01-13T02:51:06.746Z,76690.19
2023-01-13T02:53:43.453Z,76686.13
2023-01-13T02:56:13.428Z,76690.19
2023-01-13T02:58:43.683Z,76690.19
2023-01-13T03:01:10.827Z,76690.19
2023-01-13T03:03:38.190Z,76684.13
2023-01-13T03:06:30.783Z,76694.25
2023-01-13T03:09:30.612Z,76690.19
2023-01-13T03:12:08.466Z,76690.19
2023-01-13T03:14:44.538Z,76690.19
2023-01-13T03:17:11.383Z,76686.13
2023-01-13T03:19:56.593Z,76682.09
2023-01-13T03:22:33.572Z,76673.97
2023-01-13T03:25:11.943Z,76678.03
2023-01-13T03:27:45.382Z,76669.94
2023-01-13T03:30:21.234Z,76669.94
2023-01-13T03:32:57.084Z,76661.81
2023-01-13T03:35:31.194Z,76665.88
2023-01-13T03:38:22.434Z,76663.84
2023-01-13T03:40:54.905Z,76661.81
2023-01-13T03:43:45.592Z,76667.91
2023-01-13T03:46:21.766Z,76657.75
2023-01-13T03:48:53.695Z,76667.91
2023-01-13T03:51:24.020Z,76663.84
2023-01-13T03:53:57.374Z,76665.88
2023-01-13T03:56:28.084Z,76673.97
2023-01-13T03:58:57.600Z,76665.88
2023-01-13T04:01:29.297Z,76669.94
2023-01-13T04:04:32.942Z,76673.97
2023-01-13T04:07:08.913Z,76684.13
2023-01-13T04:09:52.740Z,76682.09
2023-01-13T04:12:52.348Z,76678.03
2023-01-13T04:15:22.272Z,76682.09
2023-01-13T04:17:50.786Z,76682.09
2023-01-13T04:20:17.955Z,76682.09
2023-01-13T04:22:45.169Z,76678.03
2023-01-13T04:25:12.039Z,76680.06
2023-01-13T04:27:39.323Z,76682.09
2023-01-13T04:30:07.043Z,76678.03
2023-01-13T04:32:34.700Z,76673.97
2023-01-13T04:35:01.663Z,76665.88
2023-01-13T04:37:28.874Z,76661.81
2023-01-13T04:39:55.756Z,76657.75
2023-01-13T04:42:22.909Z,76663.84
2023-01-13T04:44:49.793Z,76661.81
2023-01-13T04:47:17.064Z,76661.81
2023-01-13T04:49:43.951Z,76665.88
2023-01-13T04:52:11.085Z,76669.94
2023-01-13T04:54:38.042Z,76673.97
2023-01-13T04:57:05.268Z,76667.91
2023-01-13T04:59:33.950Z,76665.88
2023-01-13T05:02:02.287Z,76661.81
2023-01-13T05:04:29.185Z,76661.81
2023-01-13T05:06:56.774Z,76665.88
2023-01-13T05:09:23.663Z,76665.88
2023-01-13T05:12:09.551Z,76667.91
2023-01-13T05:14:55.030Z,76653.72
2023-01-13T05:17:25.097Z,76661.81
2023-01-13T05:19:52.030Z,76653.72
2023-01-13T05:22:37.910Z,76655.72
2023-01-13T05:25:24.480Z,76661.81
2023-01-13T05:27:54.356Z,76659.78
2023-01-13T05:30:23.693Z,76657.75
2023-01-13T05:32:51.022Z,76661.81
2023-01-13T05:35:18.375Z,76665.88
2023-01-13T05:37:46.522Z,76659.78
2023-01-13T05:40:34.477Z,76661.81
2023-01-13T05:43:22.139Z,76663.84
2023-01-13T05:46:07.987Z,76665.88
2023-01-13T05:48:41.386Z,76669.94
2023-01-13T05:51:10.684Z,76667.91
2023-01-13T05:53:38.115Z,76673.97
2023-01-13T05:56:06.190Z,76682.09
2023-01-13T05:58:34.404Z,76686.13
2023-01-13T06:01:03.784Z,76698.31
2023-01-13T06:03:31.839Z,76702.34
2023-01-13T06:06:01.760Z,76706.41
2023-01-13T06:08:29.755Z,76704.38
2023-01-13T06:10:56.699Z,76702.34
2023-01-13T06:13:25.434Z,76710.47
2023-01-13T06:15:56.816Z,76710.47
2023-01-13T06:18:24.135Z,76704.38
2023-01-13T06:20:51.116Z,76706.41
2023-01-13T06:23:18.358Z,76710.47
2023-01-13T06:26:25.112Z,76706.41
2023-01-13T06:28:52.413Z,76706.41
2023-01-13T06:31:20.079Z,76706.41
2023-01-13T06:33:50.875Z,76702.34
2023-01-13T06:36:35.419Z,76698.31
2023-01-13T06:39:04.158Z,76698.31
2023-01-13T06:41:51.520Z,76694.25
2023-01-13T06:44:20.474Z,76698.31
2023-01-13T06:46:47.810Z,76694.25
2023-01-13T06:49:15.056Z,76690.19
2023-01-13T06:51:42.804Z,76690.19
2023-01-13T06:54:09.950Z,76698.31
2023-01-13T06:56:36.845Z,76702.34
2023-01-13T06:59:04.089Z,76690.19
2023-01-13T07:01:31.140Z,76690.19
2023-01-13T07:03:58.403Z,76686.13
2023-01-13T07:06:25.335Z,76688.16
2023-01-13T07:08:52.532Z,76682.09
2023-01-13T07:11:19.367Z,76682.09
2023-01-13T07:14:05.351Z,76673.97
2023-01-13T07:16:32.417Z,76665.88
2023-01-13T07:18:59.748Z,76669.94
2023-01-13T07:21:26.747Z,76665.88
2023-01-13T07:23:53.959Z,76661.81
2023-01-13T07:26:21.046Z,76661.81
2023-01-13T07:28:48.468Z,76665.88
2023-01-13T07:31:21.319Z,76663.84
2023-01-13T07:33:48.900Z,76661.81
2023-01-13T07:36:16.061Z,76653.72
2023-01-13T07:38:44.748Z,76649.66
2023-01-13T07:41:32.208Z,76653.72
2023-01-13T07:44:00.437Z,76653.72
2023-01-13T07:46:27.536Z,76651.69
2023-01-13T07:48:54.677Z,76645.59
2023-01-13T07:51:21.567Z,76645.59
2023-01-13T07:53:49.344Z,76645.59
2023-01-13T07:56:16.306Z,76641.53
2023-01-13T07:58:44.942Z,76643.56
2023-01-13T08:01:14.063Z,76645.59
2023-01-13T08:03:41.523Z,76641.53
2023-01-13T08:06:09.761Z,76649.66
2023-01-13T08:08:38.012Z,76641.53
2023-01-13T08:11:07.212Z,76641.53
2023-01-13T08:13:34.674Z,76629.38
2023-01-13T08:16:07.011Z,76629.38
2023-01-13T08:18:35.748Z,76631.41
2023-01-13T08:21:05.540Z,76633.44
2023-01-13T08:23:32.795Z,76617.22
2023-01-13T08:26:02.268Z,76609.09
2023-01-13T08:28:30.220Z,76611.13
2023-01-13T08:31:02.018Z,76603.03
2023-01-13T08:33:29.896Z,76601.00
2023-01-13T08:35:57.095Z,76596.94
2023-01-13T08:38:25.788Z,76588.84
2023-01-13T08:40:53.053Z,76588.84
2023-01-13T08:43:20.501Z,76576.69
2023-01-13T08:45:56.788Z,76584.78
2023-01-13T08:48:24.415Z,76572.63
2023-01-13T08:50:51.431Z,76572.63
2023-01-13T08:53:19.053Z,76572.63
2023-01-13T08:55:46.532Z,76584.78
2023-01-13T08:58:15.998Z,76564.50
2023-01-13T09:00:44.082Z,76568.56
2023-01-13T09:03:11.741Z,76560.47
2023-01-13T09:05:38.690Z,76560.47
2023-01-13T09:08:06.039Z,76552.34
2023-01-13T09:10:33.732Z,76552.34
2023-01-13T09:13:13.424Z,76548.31
2023-01-13T09:15:49.716Z,76544.25
2023-01-13T09:18:17.352Z,76540.19
2023-01-13T09:20:44.816Z,76540.19
2023-01-13T09:23:12.013Z,76536.13
2023-01-13T09:25:39.783Z,76536.13
2023-01-13T09:28:08.447Z,76536.13
2023-01-13T09:30:37.319Z,76538.16
2023-01-13T09:33:23.244Z,76532.09
2023-01-13T09:35:50.208Z,76538.16
2023-01-13T09:38:17.499Z,76519.91
2023-01-13T09:40:48.964Z,76519.91
2023-01-13T09:43:53.984Z,76509.78
2023-01-13T09:46:44.136Z,76507.75
2023-01-13T09:49:20.958Z,76499.66
2023-01-13T09:52:09.238Z,76495.59
2023-01-13T09:54:49.771Z,76491.53
2023-01-13T09:57:20.508Z,76487.50
2023-01-13T09:59:48.753Z,76471.28
2023-01-13T10:02:51.252Z,76467.22
2023-01-13T10:05:43.524Z,76467.22
2023-01-13T10:08:15.597Z,76459.09
2023-01-13T10:10:51.017Z,76455.06
2023-01-13T10:13:26.976Z,76448.97
2023-01-13T10:16:19.115Z,76438.84
2023-01-13T10:18:58.376Z,76438.84
2023-01-13T10:22:10.705Z,76430.72
2023-01-13T10:24:53.965Z,76418.56
2023-01-13T10:27:36.846Z,76410.47
2023-01-13T10:30:33.999Z,76402.34
2023-01-13T10:33:09.543Z,76390.19
2023-01-13T10:35:51.789Z,76390.19
2023-01-13T10:38:25.303Z,76386.13
2023-01-13T10:40:54.891Z,76394.25
2023-01-13T10:43:23.122Z,76382.09
2023-01-13T10:46:06.309Z,76398.28
2023-01-13T10:48:39.483Z,76369.91
2023-01-13T10:51:16.569Z,76378.03
2023-01-13T10:54:02.763Z,76378.03
2023-01-13T10:56:33.049Z,76367.88
2023-01-13T10:59:23.033Z,76369.91
2023-01-13T11:02:00.876Z,76359.78
2023-01-13T11:04:44.040Z,76355.72
2023-01-13T11:07:26.770Z,76361.81
2023-01-13T11:10:28.659Z,76361.81
2023-01-13T11:13:01.389Z,76365.88
2023-01-13T11:15:48.907Z,76359.78
2023-01-13T11:18:26.900Z,76357.75
2023-01-13T11:20:58.590Z,76357.75
2023-01-13T11:23:40.690Z,76353.72
2023-01-13T11:26:41.015Z,76353.72
2023-01-13T11:29:38.357Z,76345.59
2023-01-13T11:32:28.119Z,76345.59
2023-01-13T11:35:02.068Z,76341.53
2023-01-13T11:37:33.353Z,76335.47
2023-01-13T11:40:25.919Z,76329.38
2023-01-13T11:43:02.041Z,76317.22
2023-01-13T11:45:43.932Z,76313.16
2023-01-13T11:48:17.800Z,76303.03
2023-01-13T11:50:53.963Z,76288.84
2023-01-13T11:53:28.338Z,76292.91
2023-01-13T11:56:27.718Z,76284.78
2023-01-13T11:59:10.956Z,76282.75
2023-01-13T12:01:53.652Z,76284.78
2023-01-13T12:04:29.647Z,76292.91
2023-01-13T12:07:23.175Z,76286.81
2023-01-13T12:10:16.876Z,76294.91
2023-01-13T12:12:43.981Z,76284.78
2023-01-13T12:15:35.949Z,76301.00
2023-01-13T12:18:21.422Z,76296.94
2023-01-13T12:21:07.408Z,76303.03
2023-01-13T12:23:47.026Z,76301.00
2023-01-13T12:26:17.144Z,76296.94
2023-01-13T12:28:53.735Z,76305.06
2023-01-13T12:31:22.367Z,76321.28
2023-01-13T12:34:40.509Z,76313.16
2023-01-13T12:37:23.907Z,76319.25
2023-01-13T12:40:12.774Z,76321.28
2023-01-13T12:43:11.233Z,76313.16
2023-01-13T12:45:38.676Z,76313.16
2023-01-13T12:48:06.348Z,76301.00
2023-01-13T12:50:37.655Z,76296.94
2023-01-13T12:53:32.456Z,76292.91
2023-01-13T12:56:21.561Z,76288.84
2023-01-13T12:58:48.905Z,76276.69
2023-01-13T13:01:16.367Z,76284.78
2023-01-13T13:04:09.487Z,76280.72
2023-01-13T13:06:39.565Z,76268.56
2023-01-13T13:09:21.715Z,76272.63
2023-01-13T13:11:58.616Z,76268.56
2023-01-13T13:14:37.895Z,76266.53
2023-01-13T13:17:29.368Z,76268.56
2023-01-13T13:19:57.855Z,76272.63
2023-01-13T13:22:27.813Z,76268.56
2023-01-13T13:24:54.964Z,76280.72
2023-01-13T13:27:21.762Z,76284.78
2023-01-13T13:30:04.765Z,76288.84
2023-01-13T13:32:50.949Z,76282.75
2023-01-13T13:35:43.334Z,76288.84
2023-01-13T13:38:34.800Z,76280.72
2023-01-13T13:41:32.232Z,76284.78
2023-01-13T13:44:21.808Z,76288.84
2023-01-13T13:46:49.852Z,76294.91
2023-01-13T13:49:22.460Z,76292.91
2023-01-13T13:52:07.178Z,76292.91
2023-01-13T13:54:35.399Z,76296.94
2023-01-13T13:57:02.708Z,76296.94
2023-01-13T13:59:30.922Z,76301.00
2023-01-13T14:02:02.117Z,76296.94
2023-01-13T14:04:37.224Z,76303.03
2023-01-13T14:07:22.072Z,76313.16
2023-01-13T14:09:54.323Z,76311.13
2023-01-13T14:12:24.037Z,76315.19
2023-01-13T14:14:51.835Z,76311.13
2023-01-13T14:17:25.832Z,76313.16
2023-01-13T14:20:01.552Z,76313.16
2023-01-13T14:22:29.072Z,76313.16
2023-01-13T14:24:57.790Z,76317.22
2023-01-13T14:27:28.419Z,76321.28
2023-01-13T14:29:58.312Z,76313.16
2023-01-13T14:32:33.624Z,76317.22
2023-01-13T14:35:00.686Z,76315.19
2023-01-13T14:37:39.755Z,76313.16
2023-01-13T14:40:07.311Z,76315.19
2023-01-13T14:42:35.613Z,76321.28
2023-01-13T14:45:03.381Z,76323.31
2023-01-13T14:47:34.102Z,76321.28
2023-01-13T14:50:16.389Z,76321.28
2023-01-13T14:52:49.264Z,76325.31
2023-01-13T14:55:41.620Z,76317.22
2023-01-13T14:58:28.657Z,76325.31
2023-01-13T15:01:36.329Z,76325.31
2023-01-13T15:04:27.049Z,76321.28
2023-01-13T15:06:57.063Z,76321.28
2023-01-13T15:09:28.240Z,76325.31
2023-01-13T15:11:58.792Z,76325.31
2023-01-13T15:14:32.580Z,76325.31
2023-01-13T15:16:59.731Z,76333.44
2023-01-13T15:19:26.922Z,76331.41
2023-01-13T15:21:53.845Z,76329.38
2023-01-13T15:24:21.174Z,76323.31
2023-01-13T15:26:48.305Z,76327.34
2023-01-13T15:29:15.841Z,76325.31
2023-01-13T15:31:42.797Z,76325.31
2023-01-13T15:34:10.076Z,76323.31
2023-01-13T15:36:37.933Z,76321.28
2023-01-13T15:39:06.931Z,76319.25
2023-01-13T15:41:52.535Z,76317.22
2023-01-13T15:44:38.470Z,76321.28
2023-01-13T15:47:08.802Z,76317.22
2023-01-13T15:49:44.030Z,76325.31
2023-01-13T15:52:23.158Z,76317.22
2023-01-13T15:54:51.708Z,76321.28
2023-01-13T15:57:41.496Z,76319.25
2023-01-13T16:00:16.144Z,76325.31
2023-01-13T16:02:44.505Z,76321.28
2023-01-13T16:05:12.496Z,76321.28
2023-01-13T16:07:40.097Z,76325.31
2023-01-13T16:10:17.333Z,76329.38
2023-01-13T16:12:44.500Z,76329.38
2023-01-13T16:15:17.219Z,76327.34
2023-01-13T16:17:46.381Z,76329.38
2023-01-13T16:20:18.107Z,76329.38
2023-01-13T16:22:45.504Z,76333.44
2023-01-13T16:25:21.781Z,76325.31
2023-01-13T16:27:49.601Z,76333.44
2023-01-13T16:30:25.247Z,76335.47
2023-01-13T16:32:55.018Z,76341.53
2023-01-13T16:35:23.721Z,76345.59
2023-01-13T16:37:52.175Z,76343.56
2023-01-13T16:40:26.613Z,76349.66
2023-01-13T16:42:53.525Z,76337.50
2023-01-13T16:45:20.656Z,76341.53
2023-01-13T16:47:47.885Z,76341.53
2023-01-13T16:50:41.059Z,76341.53
2023-01-13T16:53:12.171Z,76339.50
2023-01-13T16:55:41.224Z,76331.41
2023-01-13T16:58:17.863Z,76343.56
2023-01-13T17:00:47.014Z,76333.44
2023-01-13T17:03:15.355Z,76337.50
2023-01-13T17:05:44.442Z,76337.50
2023-01-13T17:08:17.855Z,76339.50
2023-01-13T17:10:46.358Z,76345.59
2023-01-13T17:13:16.937Z,76349.66
2023-01-13T17:15:45.880Z,76341.53
2023-01-13T17:18:13.625Z,76357.75
2023-01-13T17:20:41.160Z,76353.72
2023-01-13T17:23:08.199Z,76357.75
2023-01-13T17:25:35.527Z,76361.81
2023-01-13T17:28:02.709Z,76365.88
2023-01-13T17:30:29.934Z,76367.88
2023-01-13T17:32:56.957Z,76371.94
2023-01-13T17:35:25.234Z,76369.91
2023-01-13T17:37:53.393Z,76373.97
2023-01-13T17:40:20.875Z,76373.97
2023-01-13T17:42:47.859Z,76386.13
2023-01-13T17:45:16.370Z,76388.16
2023-01-13T17:47:43.717Z,76386.13
2023-01-13T17:50:11.189Z,76386.13
2023-01-13T17:52:38.163Z,76386.13
2023-01-13T17:55:05.743Z,76394.25
2023-01-13T17:57:32.671Z,76406.41
2023-01-13T17:59:59.884Z,76408.44
2023-01-13T18:02:26.941Z,76414.50
2023-01-13T18:04:54.193Z,76414.50
2023-01-13T18:07:21.095Z,76422.63
2023-01-13T18:09:48.481Z,76422.63
2023-01-13T18:12:15.436Z,76422.63
2023-01-13T18:14:42.637Z,76426.69
2023-01-13T18:17:09.581Z,76430.72
2023-01-13T18:19:55.220Z,76434.78
2023-01-13T18:22:41.090Z,76438.84
2023-01-13T18:25:31.017Z,76448.97
2023-01-13T18:28:01.204Z,76453.03
2023-01-13T18:30:28.497Z,76455.06
2023-01-13T18:32:56.031Z,76467.22
2023-01-13T18:35:23.464Z,76467.22
2023-01-13T18:37:52.097Z,76467.22
2023-01-13T18:40:19.328Z,76475.31
2023-01-13T18:42:52.151Z,76469.25
2023-01-13T18:45:23.229Z,76475.31
2023-01-13T18:47:50.895Z,76473.28
2023-01-13T18:50:18.860Z,76481.41
2023-01-13T18:52:46.379Z,76483.44
2023-01-13T18:55:13.548Z,76487.50
2023-01-13T18:57:40.698Z,76479.38
2023-01-13T19:00:09.977Z,76479.38
2023-01-13T19:02:37.473Z,76479.38
2023-01-13T19:05:05.359Z,76483.44
2023-01-13T19:07:34.901Z,76475.31
2023-01-13T19:10:04.439Z,76475.31
2023-01-13T19:12:33.696Z,76479.38
2023-01-13T19:15:02.140Z,76483.44
2023-01-13T19:17:33.855Z,76479.38
2023-01-13T19:20:01.575Z,76469.25
2023-01-13T19:22:35.671Z,76471.28
2023-01-13T19:25:04.423Z,76473.28
2023-01-13T19:27:31.719Z,76471.28
2023-01-13T19:30:00.681Z,76467.22
2023-01-13T19:32:28.766Z,76475.31
2023-01-13T19:34:59.348Z,76469.25
2023-01-13T19:37:34.273Z,76467.22
2023-01-13T19:40:01.649Z,76465.19
2023-01-13T19:42:47.317Z,76467.22
2023-01-13T19:45:29.396Z,76467.22
2023-01-13T19:47:57.797Z,76467.22
2023-01-13T19:50:24.995Z,76465.19
2023-01-13T19:52:52.000Z,76467.22
2023-01-13T19:55:19.858Z,76461.13
2023-01-13T19:57:47.261Z,76455.06
2023-01-13T20:00:20.306Z,76461.13
2023-01-13T20:02:49.185Z,76467.22
2023-01-13T20:05:21.239Z,76467.22
2023-01-13T20:07:50.012Z,76463.16
2023-01-13T20:10:18.923Z,76463.16
2023-01-13T20:12:45.880Z,76463.16
2023-01-13T20:15:13.794Z,76461.13
2023-01-13T20:17:41.655Z,76465.19
2023-01-13T20:20:10.701Z,76467.22
2023-01-13T20:22:39.319Z,76467.22
2023-01-13T20:25:07.757Z,76455.06
2023-01-13T20:27:34.982Z,76451.00
2023-01-13T20:30:02.324Z,76453.03
2023-01-13T20:32:29.195Z,76455.06
2023-01-13T20:34:56.324Z,76461.13
2023-01-13T20:37:23.272Z,76455.06
2023-01-13T20:39:50.639Z,76461.13
2023-01-13T20:42:39.806Z,76463.16
2023-01-13T20:45:07.466Z,76459.09
2023-01-13T20:47:34.622Z,76465.19
2023-01-13T20:50:01.821Z,76469.25
2023-01-13T20:52:28.813Z,76471.28
2023-01-13T20:54:55.946Z,76471.28
2023-01-13T20:57:22.826Z,76467.22
2023-01-13T20:59:50.006Z,76467.22
2023-01-13T21:02:17.820Z,76479.38
2023-01-13T21:04:45.298Z,76479.38
2023-01-13T21:07:12.221Z,76483.44
2023-01-13T21:09:39.878Z,76489.50
2023-01-13T21:12:26.208Z,76487.50
2023-01-13T21:15:12.215Z,76493.56
2023-01-13T21:17:57.815Z,76511.81
2023-01-13T21:20:25.094Z,76495.59
2023-01-13T21:22:51.992Z,76499.66
2023-01-13T21:25:19.761Z,76501.69
2023-01-13T21:27:46.654Z,76507.75
2023-01-13T21:30:15.477Z,76503.69
2023-01-13T21:32:44.217Z,76493.56
2023-01-13T21:35:13.352Z,76503.69
2023-01-13T21:37:42.002Z,76503.69
2023-01-13T21:40:12.254Z,76519.91
2023-01-13T21:42:57.570Z,76526.00
2023-01-13T21:45:43.310Z,76523.97
2023-01-13T21:48:10.325Z,76544.25
2023-01-13T21:50:38.585Z,76544.25
2023-01-13T21:53:07.882Z,76550.31
2023-01-13T21:55:36.825Z,76552.34
2023-01-13T21:58:11.030Z,76556.41
2023-01-13T22:00:39.586Z,76568.56
2023-01-13T22:03:08.051Z,76568.56
2023-01-13T22:05:35.665Z,76572.63
2023-01-13T22:08:03.014Z,76572.63
2023-01-13T22:10:31.021Z,76576.69
2023-01-13T22:13:00.384Z,76580.72
2023-01-13T22:15:29.164Z,76584.78
2023-01-13T22:17:56.525Z,76594.91
2023-01-13T22:20:23.691Z,76601.00
2023-01-13T22:22:50.625Z,76609.09
2023-01-13T22:25:20.228Z,76613.16
2023-01-13T22:27:48.451Z,76625.31
2023-01-13T22:30:18.920Z,76629.38
2023-01-13T22:32:46.488Z,76633.44
2023-01-13T22:35:15.636Z,76629.38
2023-01-13T22:37:42.735Z,76649.66
2023-01-13T22:40:12.114Z,76657.75
2023-01-13T22:42:40.983Z,76657.75
2023-01-13T22:45:11.847Z,76653.72
2023-01-13T22:47:38.943Z,76661.81
2023-01-13T22:50:07.412Z,76653.72
2023-01-13T22:52:35.326Z,76661.81
2023-01-13T22:55:02.754Z,76671.94
2023-01-13T22:57:35.928Z,76678.03
2023-01-13T23:00:06.389Z,76690.19
2023-01-13T23:02:34.653Z,76706.41
2023-01-13T23:05:01.977Z,76714.53
2023-01-13T23:07:29.162Z,76722.63
2023-01-13T23:09:56.333Z,76718.56
2023-01-13T23:12:23.248Z,76714.53
2023-01-13T23:14:50.450Z,76726.69
2023-01-13T23:17:17.333Z,76734.78
2023-01-13T23:19:44.508Z,76734.78
2023-01-13T23:22:13.120Z,76734.78
2023-01-13T23:24:40.350Z,76742.91
2023-01-13T23:27:07.256Z,76742.91
2023-01-13T23:29:34.439Z,76744.94
2023-01-13T23:32:01.323Z,76746.97
2023-01-13T23:34:28.659Z,76746.97
2023-01-13T23:36:55.516Z,76742.91
2023-01-13T23:39:24.359Z,76744.94
2023-01-13T23:41:51.576Z,76746.97
2023-01-13T23:44:18.740Z,76748.97
2023-01-13T23:46:45.704Z,76755.06
2023-01-13T23:49:12.882Z,76759.13
2023-01-13T23:51:39.959Z,76761.16
2023-01-13T23:54:07.216Z,76759.13
2023-01-13T23:56:39.164Z,76767.22
2023-01-13T23:59:06.709Z,76767.22
